sensor_id;sensor_type;location;lat;lon;timestamp;P1;durP1;ratioP1;P2;durP2;ratioP2
66663;SDS011;59683;51.428;-1.994;2023-12-20T00:00:55;17.40;;;1.90;;
66663;SDS011;59683;51.428;-1.994;2023-12-20T00:03:21;21.37;;;2.50;;
66663;SDS011;59683;51.428;-1.994;2023-12-20T00:05:46;12.10;;;2.13;;
66663;SDS011;59683;51.428;-1.994;2023-12-20T00:08:12;11.05;;;2.78;;
66663;SDS011;59683;51.428;-1.994;2023-12-20T00:10:38;22.60;;;3.60;;
66663;SDS011;59683;51.428;-1.994;2023-12-20T00:13:03;18.80;;;3.60;;
66663;SDS011;59683;51.428;-1.994;2023-12-20T00:15:28;12.43;;;1.60;;
66663;SDS011;59683;51.428;-1.994;2023-12-20T00:17:54;20.67;;;4.23;;
66663;SDS011;59683;51.428;-1.994;2023-12-20T00:20:19;21.50;;;2.43;;
66663;SDS011;59683;51.428;-1.994;2023-12-20T00:22:45;8.37;;;2.03;;
66663;SDS011;59683;51.428;-1.994;2023-12-20T00:25:10;17.70;;;2.97;;
66663;SDS011;59683;51.428;-1.994;2023-12-20T00:27:35;19.57;;;2.83;;
66663;SDS011;59683;51.428;-1.994;2023-12-20T00:30:01;11.67;;;2.40;;
66663;SDS011;59683;51.428;-1.994;2023-12-20T00:32:26;15.60;;;2.43;;
66663;SDS011;59683;51.428;-1.994;2023-12-20T00:34:51;14.03;;;2.93;;
66663;SDS011;59683;51.428;-1.994;2023-12-20T00:37:17;13.20;;;2.07;;
66663;SDS011;59683;51.428;-1.994;2023-12-20T00:39:42;11.13;;;2.03;;
66663;SDS011;59683;51.428;-1.994;2023-12-20T00:42:07;20.87;;;3.00;;
66663;SDS011;59683;51.428;-1.994;2023-12-20T00:44:33;20.23;;;2.73;;
66663;SDS011;59683;51.428;-1.994;2023-12-20T00:46:58;13.77;;;2.40;;
66663;SDS011;59683;51.428;-1.994;2023-12-20T00:49:23;20.80;;;2.60;;
66663;SDS011;59683;51.428;-1.994;2023-12-20T00:51:49;16.00;;;2.73;;
66663;SDS011;59683;51.428;-1.994;2023-12-20T00:54:15;26.10;;;4.28;;
66663;SDS011;59683;51.428;-1.994;2023-12-20T00:56:41;21.00;;;4.77;;
66663;SDS011;59683;51.428;-1.994;2023-12-20T00:59:06;24.27;;;3.67;;
66663;SDS011;59683;51.428;-1.994;2023-12-20T01:01:32;13.77;;;3.27;;
66663;SDS011;59683;51.428;-1.994;2023-12-20T01:03:58;14.52;;;2.33;;
66663;SDS011;59683;51.428;-1.994;2023-12-20T01:06:23;19.97;;;2.93;;
66663;SDS011;59683;51.428;-1.994;2023-12-20T01:08:49;19.97;;;1.90;;
66663;SDS011;59683;51.428;-1.994;2023-12-20T01:11:14;17.90;;;3.60;;
66663;SDS011;59683;51.428;-1.994;2023-12-20T01:13:39;19.97;;;3.60;;
66663;SDS011;59683;51.428;-1.994;2023-12-20T01:16:05;18.03;;;3.70;;
66663;SDS011;59683;51.428;-1.994;2023-12-20T01:18:30;10.63;;;2.20;;
66663;SDS011;59683;51.428;-1.994;2023-12-20T01:20:56;15.50;;;2.57;;
66663;SDS011;59683;51.428;-1.994;2023-12-20T01:23:26;14.55;;;2.67;;
66663;SDS011;59683;51.428;-1.994;2023-12-20T01:25:51;17.43;;;2.87;;
66663;SDS011;59683;51.428;-1.994;2023-12-20T01:28:16;21.27;;;3.20;;
66663;SDS011;59683;51.428;-1.994;2023-12-20T01:30:42;14.93;;;2.40;;
66663;SDS011;59683;51.428;-1.994;2023-12-20T01:33:07;23.37;;;4.23;;
66663;SDS011;59683;51.428;-1.994;2023-12-20T01:35:33;15.60;;;3.07;;
66663;SDS011;59683;51.428;-1.994;2023-12-20T01:37:58;16.60;;;2.90;;
66663;SDS011;59683;51.428;-1.994;2023-12-20T01:40:23;19.37;;;3.53;;
66663;SDS011;59683;51.428;-1.994;2023-12-20T01:42:59;19.00;;;3.45;;
66663;SDS011;59683;51.428;-1.994;2023-12-20T01:45:26;16.92;;;3.83;;
66663;SDS011;59683;51.428;-1.994;2023-12-20T01:47:51;11.17;;;2.33;;
66663;SDS011;59683;51.428;-1.994;2023-12-20T01:50:17;18.43;;;2.37;;
66663;SDS011;59683;51.428;-1.994;2023-12-20T01:52:42;11.33;;;2.00;;
66663;SDS011;59683;51.428;-1.994;2023-12-20T01:55:08;11.35;;;2.92;;
66663;SDS011;59683;51.428;-1.994;2023-12-20T01:57:39;20.98;;;3.03;;
66663;SDS011;59683;51.428;-1.994;2023-12-20T02:00:06;16.08;;;2.38;;
66663;SDS011;59683;51.428;-1.994;2023-12-20T02:02:31;14.40;;;2.60;;
66663;SDS011;59683;51.428;-1.994;2023-12-20T02:04:58;13.18;;;2.22;;
66663;SDS011;59683;51.428;-1.994;2023-12-20T02:07:23;11.47;;;2.80;;
66663;SDS011;59683;51.428;-1.994;2023-12-20T02:09:49;11.97;;;2.40;;
66663;SDS011;59683;51.428;-1.994;2023-12-20T02:12:15;16.70;;;3.50;;
66663;SDS011;59683;51.428;-1.994;2023-12-20T02:14:40;16.93;;;2.33;;
66663;SDS011;59683;51.428;-1.994;2023-12-20T02:17:06;15.13;;;2.60;;
66663;SDS011;59683;51.428;-1.994;2023-12-20T02:19:31;11.03;;;2.37;;
66663;SDS011;59683;51.428;-1.994;2023-12-20T02:22:07;28.43;;;2.70;;
66663;SDS011;59683;51.428;-1.994;2023-12-20T02:24:33;22.77;;;4.20;;
66663;SDS011;59683;51.428;-1.994;2023-12-20T02:26:58;15.30;;;2.73;;
66663;SDS011;59683;51.428;-1.994;2023-12-20T02:29:24;15.40;;;3.60;;
66663;SDS011;59683;51.428;-1.994;2023-12-20T02:31:49;16.67;;;2.30;;
66663;SDS011;59683;51.428;-1.994;2023-12-20T02:34:15;16.03;;;2.80;;
66663;SDS011;59683;51.428;-1.994;2023-12-20T02:36:40;21.77;;;2.87;;
66663;SDS011;59683;51.428;-1.994;2023-12-20T02:39:05;20.53;;;3.57;;
66663;SDS011;59683;51.428;-1.994;2023-12-20T02:41:31;11.00;;;2.33;;
66663;SDS011;59683;51.428;-1.994;2023-12-20T02:43:56;17.53;;;2.67;;
66663;SDS011;59683;51.428;-1.994;2023-12-20T02:46:22;23.73;;;3.03;;
66663;SDS011;59683;51.428;-1.994;2023-12-20T02:48:48;17.85;;;2.75;;
66663;SDS011;59683;51.428;-1.994;2023-12-20T02:51:13;13.40;;;1.90;;
66663;SDS011;59683;51.428;-1.994;2023-12-20T02:53:38;16.70;;;3.80;;
66663;SDS011;59683;51.428;-1.994;2023-12-20T02:56:04;16.37;;;2.50;;
66663;SDS011;59683;51.428;-1.994;2023-12-20T02:58:29;16.33;;;3.13;;
66663;SDS011;59683;51.428;-1.994;2023-12-20T03:00:55;13.53;;;2.40;;
66663;SDS011;59683;51.428;-1.994;2023-12-20T03:03:20;15.37;;;2.80;;
66663;SDS011;59683;51.428;-1.994;2023-12-20T03:05:45;20.03;;;2.83;;
66663;SDS011;59683;51.428;-1.994;2023-12-20T03:08:11;18.90;;;2.47;;
66663;SDS011;59683;51.428;-1.994;2023-12-20T03:10:37;11.33;;;2.27;;
66663;SDS011;59683;51.428;-1.994;2023-12-20T03:13:02;15.43;;;2.47;;
66663;SDS011;59683;51.428;-1.994;2023-12-20T03:15:27;14.90;;;2.80;;
66663;SDS011;59683;51.428;-1.994;2023-12-20T03:17:53;12.87;;;2.90;;
66663;SDS011;59683;51.428;-1.994;2023-12-20T03:20:18;18.33;;;3.30;;
66663;SDS011;59683;51.428;-1.994;2023-12-20T03:22:43;16.50;;;2.70;;
66663;SDS011;59683;51.428;-1.994;2023-12-20T03:25:09;12.37;;;2.10;;
66663;SDS011;59683;51.428;-1.994;2023-12-20T03:27:36;15.57;;;2.53;;
66663;SDS011;59683;51.428;-1.994;2023-12-20T03:30:03;19.30;;;2.38;;
66663;SDS011;59683;51.428;-1.994;2023-12-20T03:32:29;14.90;;;1.90;;
66663;SDS011;59683;51.428;-1.994;2023-12-20T03:34:54;14.23;;;1.67;;
66663;SDS011;59683;51.428;-1.994;2023-12-20T03:37:19;15.20;;;2.43;;
66663;SDS011;59683;51.428;-1.994;2023-12-20T03:39:45;15.03;;;2.17;;
66663;SDS011;59683;51.428;-1.994;2023-12-20T03:42:10;15.17;;;2.47;;
66663;SDS011;59683;51.428;-1.994;2023-12-20T03:44:38;17.57;;;3.20;;
66663;SDS011;59683;51.428;-1.994;2023-12-20T03:47:04;15.23;;;3.03;;
66663;SDS011;59683;51.428;-1.994;2023-12-20T03:49:29;18.60;;;2.40;;
66663;SDS011;59683;51.428;-1.994;2023-12-20T03:51:54;17.47;;;3.40;;
66663;SDS011;59683;51.428;-1.994;2023-12-20T03:54:20;17.13;;;3.47;;
66663;SDS011;59683;51.428;-1.994;2023-12-20T03:56:45;17.20;;;2.33;;
66663;SDS011;59683;51.428;-1.994;2023-12-20T03:59:10;28.20;;;3.80;;
66663;SDS011;59683;51.428;-1.994;2023-12-20T04:01:36;15.00;;;2.30;;
66663;SDS011;59683;51.428;-1.994;2023-12-20T04:04:01;22.10;;;4.33;;
66663;SDS011;59683;51.428;-1.994;2023-12-20T04:06:26;18.53;;;3.30;;
66663;SDS011;59683;51.428;-1.994;2023-12-20T04:08:52;13.73;;;1.87;;
66663;SDS011;59683;51.428;-1.994;2023-12-20T04:11:17;14.50;;;2.17;;
66663;SDS011;59683;51.428;-1.994;2023-12-20T04:13:43;23.93;;;2.90;;
66663;SDS011;59683;51.428;-1.994;2023-12-20T04:16:08;16.70;;;2.43;;
66663;SDS011;59683;51.428;-1.994;2023-12-20T04:18:33;9.10;;;2.00;;
66663;SDS011;59683;51.428;-1.994;2023-12-20T04:20:59;16.23;;;2.80;;
66663;SDS011;59683;51.428;-1.994;2023-12-20T04:23:24;23.00;;;4.63;;
66663;SDS011;59683;51.428;-1.994;2023-12-20T04:25:50;16.20;;;2.30;;
66663;SDS011;59683;51.428;-1.994;2023-12-20T04:28:15;16.57;;;3.07;;
66663;SDS011;59683;51.428;-1.994;2023-12-20T04:30:41;18.73;;;2.23;;
66663;SDS011;59683;51.428;-1.994;2023-12-20T04:33:07;17.05;;;2.15;;
66663;SDS011;59683;51.428;-1.994;2023-12-20T04:35:32;16.33;;;3.13;;
66663;SDS011;59683;51.428;-1.994;2023-12-20T04:37:57;12.80;;;2.87;;
66663;SDS011;59683;51.428;-1.994;2023-12-20T04:40:23;14.60;;;2.43;;
66663;SDS011;59683;51.428;-1.994;2023-12-20T04:42:48;27.33;;;3.80;;
66663;SDS011;59683;51.428;-1.994;2023-12-20T04:45:13;19.47;;;2.93;;
66663;SDS011;59683;51.428;-1.994;2023-12-20T04:47:41;18.20;;;2.17;;
66663;SDS011;59683;51.428;-1.994;2023-12-20T04:50:07;15.45;;;2.10;;
66663;SDS011;59683;51.428;-1.994;2023-12-20T04:52:33;24.00;;;2.53;;
66663;SDS011;59683;51.428;-1.994;2023-12-20T04:54:58;13.17;;;2.30;;
66663;SDS011;59683;51.428;-1.994;2023-12-20T04:57:24;13.97;;;2.17;;
66663;SDS011;59683;51.428;-1.994;2023-12-20T04:59:50;16.80;;;3.10;;
66663;SDS011;59683;51.428;-1.994;2023-12-20T05:02:15;12.30;;;2.00;;
66663;SDS011;59683;51.428;-1.994;2023-12-20T05:04:40;19.30;;;3.07;;
66663;SDS011;59683;51.428;-1.994;2023-12-20T05:07:06;15.63;;;2.13;;
66663;SDS011;59683;51.428;-1.994;2023-12-20T05:09:32;16.13;;;2.23;;
66663;SDS011;59683;51.428;-1.994;2023-12-20T05:11:57;15.47;;;2.60;;
66663;SDS011;59683;51.428;-1.994;2023-12-20T05:14:22;22.63;;;3.30;;
66663;SDS011;59683;51.428;-1.994;2023-12-20T05:16:48;17.83;;;3.63;;
66663;SDS011;59683;51.428;-1.994;2023-12-20T05:19:13;16.20;;;3.33;;
66663;SDS011;59683;51.428;-1.994;2023-12-20T05:21:39;14.20;;;2.40;;
66663;SDS011;59683;51.428;-1.994;2023-12-20T05:24:04;12.17;;;2.20;;
66663;SDS011;59683;51.428;-1.994;2023-12-20T05:26:30;19.00;;;2.10;;
66663;SDS011;59683;51.428;-1.994;2023-12-20T05:28:55;18.83;;;3.43;;
66663;SDS011;59683;51.428;-1.994;2023-12-20T05:31:21;21.83;;;3.37;;
66663;SDS011;59683;51.428;-1.994;2023-12-20T05:33:46;9.70;;;2.30;;
66663;SDS011;59683;51.428;-1.994;2023-12-20T05:36:11;22.07;;;3.53;;
66663;SDS011;59683;51.428;-1.994;2023-12-20T05:38:38;16.10;;;2.33;;
66663;SDS011;59683;51.428;-1.994;2023-12-20T05:41:04;11.47;;;2.10;;
66663;SDS011;59683;51.428;-1.994;2023-12-20T05:43:29;14.63;;;2.87;;
66663;SDS011;59683;51.428;-1.994;2023-12-20T05:45:55;8.40;;;2.03;;
66663;SDS011;59683;51.428;-1.994;2023-12-20T05:48:20;14.37;;;3.53;;
66663;SDS011;59683;51.428;-1.994;2023-12-20T05:50:45;22.87;;;2.70;;
66663;SDS011;59683;51.428;-1.994;2023-12-20T05:53:11;19.27;;;3.13;;
66663;SDS011;59683;51.428;-1.994;2023-12-20T05:55:36;21.70;;;3.77;;
66663;SDS011;59683;51.428;-1.994;2023-12-20T05:58:02;17.87;;;2.73;;
66663;SDS011;59683;51.428;-1.994;2023-12-20T06:00:28;10.70;;;1.97;;
66663;SDS011;59683;51.428;-1.994;2023-12-20T06:02:53;16.93;;;2.27;;
66663;SDS011;59683;51.428;-1.994;2023-12-20T06:05:18;19.33;;;2.40;;
66663;SDS011;59683;51.428;-1.994;2023-12-20T06:07:45;19.67;;;2.93;;
66663;SDS011;59683;51.428;-1.994;2023-12-20T06:10:12;19.35;;;2.25;;
66663;SDS011;59683;51.428;-1.994;2023-12-20T06:12:38;13.20;;;1.98;;
66663;SDS011;59683;51.428;-1.994;2023-12-20T06:15:04;15.87;;;2.40;;
66663;SDS011;59683;51.428;-1.994;2023-12-20T06:17:30;19.15;;;2.90;;
66663;SDS011;59683;51.428;-1.994;2023-12-20T06:19:56;15.67;;;3.13;;
66663;SDS011;59683;51.428;-1.994;2023-12-20T06:22:22;16.30;;;2.23;;
66663;SDS011;59683;51.428;-1.994;2023-12-20T06:24:47;22.27;;;3.00;;
66663;SDS011;59683;51.428;-1.994;2023-12-20T06:27:13;17.33;;;2.20;;
66663;SDS011;59683;51.428;-1.994;2023-12-20T06:29:38;13.07;;;2.50;;
66663;SDS011;59683;51.428;-1.994;2023-12-20T06:32:05;16.90;;;3.40;;
66663;SDS011;59683;51.428;-1.994;2023-12-20T06:34:31;12.87;;;2.70;;
66663;SDS011;59683;51.428;-1.994;2023-12-20T06:36:56;12.47;;;1.90;;
66663;SDS011;59683;51.428;-1.994;2023-12-20T06:39:21;15.43;;;2.40;;
66663;SDS011;59683;51.428;-1.994;2023-12-20T06:41:47;18.33;;;2.43;;
66663;SDS011;59683;51.428;-1.994;2023-12-20T06:44:12;12.03;;;2.17;;
66663;SDS011;59683;51.428;-1.994;2023-12-20T06:46:37;14.37;;;2.83;;
66663;SDS011;59683;51.428;-1.994;2023-12-20T06:49:03;17.97;;;2.60;;
66663;SDS011;59683;51.428;-1.994;2023-12-20T06:51:28;21.07;;;2.23;;
66663;SDS011;59683;51.428;-1.994;2023-12-20T06:53:55;16.38;;;2.20;;
66663;SDS011;59683;51.428;-1.994;2023-12-20T06:56:21;11.07;;;2.43;;
66663;SDS011;59683;51.428;-1.994;2023-12-20T06:58:46;16.23;;;2.60;;
66663;SDS011;59683;51.428;-1.994;2023-12-20T07:01:15;15.87;;;2.27;;
66663;SDS011;59683;51.428;-1.994;2023-12-20T07:03:41;17.33;;;2.42;;
66663;SDS011;59683;51.428;-1.994;2023-12-20T07:06:06;12.50;;;2.30;;
66663;SDS011;59683;51.428;-1.994;2023-12-20T07:08:32;17.33;;;2.10;;
66663;SDS011;59683;51.428;-1.994;2023-12-20T07:10:57;17.00;;;3.10;;
66663;SDS011;59683;51.428;-1.994;2023-12-20T07:13:23;10.77;;;1.77;;
66663;SDS011;59683;51.428;-1.994;2023-12-20T07:15:48;13.37;;;2.13;;
66663;SDS011;59683;51.428;-1.994;2023-12-20T07:18:14;13.97;;;1.70;;
66663;SDS011;59683;51.428;-1.994;2023-12-20T07:20:39;16.27;;;1.97;;
66663;SDS011;59683;51.428;-1.994;2023-12-20T07:23:05;17.47;;;1.93;;
66663;SDS011;59683;51.428;-1.994;2023-12-20T07:25:30;14.47;;;2.40;;
66663;SDS011;59683;51.428;-1.994;2023-12-20T07:27:57;17.00;;;2.53;;
66663;SDS011;59683;51.428;-1.994;2023-12-20T07:30:23;13.33;;;1.87;;
66663;SDS011;59683;51.428;-1.994;2023-12-20T07:32:49;11.40;;;2.80;;
66663;SDS011;59683;51.428;-1.994;2023-12-20T07:35:17;13.13;;;2.50;;
66663;SDS011;59683;51.428;-1.994;2023-12-20T07:37:42;17.23;;;1.98;;
66663;SDS011;59683;51.428;-1.994;2023-12-20T07:40:08;21.20;;;2.67;;
66663;SDS011;59683;51.428;-1.994;2023-12-20T07:42:34;8.10;;;1.47;;
66663;SDS011;59683;51.428;-1.994;2023-12-20T07:44:59;14.67;;;2.43;;
66663;SDS011;59683;51.428;-1.994;2023-12-20T07:47:24;12.20;;;1.70;;
66663;SDS011;59683;51.428;-1.994;2023-12-20T07:49:50;13.30;;;2.30;;
66663;SDS011;59683;51.428;-1.994;2023-12-20T07:52:17;11.13;;;1.63;;
66663;SDS011;59683;51.428;-1.994;2023-12-20T07:54:43;16.90;;;2.47;;
66663;SDS011;59683;51.428;-1.994;2023-12-20T07:57:09;11.73;;;1.67;;
66663;SDS011;59683;51.428;-1.994;2023-12-20T07:59:35;11.82;;;2.78;;
66663;SDS011;59683;51.428;-1.994;2023-12-20T08:02:01;17.13;;;1.63;;
66663;SDS011;59683;51.428;-1.994;2023-12-20T08:04:26;16.30;;;3.57;;
66663;SDS011;59683;51.428;-1.994;2023-12-20T08:06:52;10.60;;;1.63;;
66663;SDS011;59683;51.428;-1.994;2023-12-20T08:09:17;10.67;;;1.30;;
66663;SDS011;59683;51.428;-1.994;2023-12-20T08:11:46;11.13;;;1.90;;
66663;SDS011;59683;51.428;-1.994;2023-12-20T08:14:12;14.90;;;2.10;;
66663;SDS011;59683;51.428;-1.994;2023-12-20T08:16:37;14.07;;;2.10;;
66663;SDS011;59683;51.428;-1.994;2023-12-20T08:19:02;12.57;;;2.43;;
66663;SDS011;59683;51.428;-1.994;2023-12-20T08:21:28;15.07;;;1.53;;
66663;SDS011;59683;51.428;-1.994;2023-12-20T08:23:53;17.43;;;2.03;;
66663;SDS011;59683;51.428;-1.994;2023-12-20T08:26:19;8.80;;;1.50;;
66663;SDS011;59683;51.428;-1.994;2023-12-20T08:28:49;12.05;;;1.42;;
66663;SDS011;59683;51.428;-1.994;2023-12-20T08:31:17;11.33;;;1.83;;
66663;SDS011;59683;51.428;-1.994;2023-12-20T08:33:47;12.75;;;2.08;;
66663;SDS011;59683;51.428;-1.994;2023-12-20T08:36:13;10.18;;;1.65;;
66663;SDS011;59683;51.428;-1.994;2023-12-20T08:38:39;14.47;;;1.43;;
66663;SDS011;59683;51.428;-1.994;2023-12-20T08:41:04;12.87;;;1.73;;
66663;SDS011;59683;51.428;-1.994;2023-12-20T08:43:31;8.60;;;1.30;;
66663;SDS011;59683;51.428;-1.994;2023-12-20T08:45:56;18.13;;;2.17;;
66663;SDS011;59683;51.428;-1.994;2023-12-20T08:48:22;9.77;;;1.90;;
66663;SDS011;59683;51.428;-1.994;2023-12-20T08:50:47;11.03;;;1.70;;
66663;SDS011;59683;51.428;-1.994;2023-12-20T08:53:15;10.83;;;1.57;;
66663;SDS011;59683;51.428;-1.994;2023-12-20T08:55:41;8.82;;;1.30;;
66663;SDS011;59683;51.428;-1.994;2023-12-20T08:58:07;13.03;;;1.87;;
66663;SDS011;59683;51.428;-1.994;2023-12-20T09:00:33;9.77;;;1.53;;
66663;SDS011;59683;51.428;-1.994;2023-12-20T09:03:01;11.27;;;2.00;;
66663;SDS011;59683;51.428;-1.994;2023-12-20T09:05:27;8.83;;;1.40;;
66663;SDS011;59683;51.428;-1.994;2023-12-20T09:07:53;6.17;;;1.07;;
66663;SDS011;59683;51.428;-1.994;2023-12-20T09:10:19;9.67;;;1.20;;
66663;SDS011;59683;51.428;-1.994;2023-12-20T09:12:56;11.07;;;1.37;;
66663;SDS011;59683;51.428;-1.994;2023-12-20T09:15:25;7.83;;;1.50;;
66663;SDS011;59683;51.428;-1.994;2023-12-20T09:17:52;7.40;;;1.27;;
66663;SDS011;59683;51.428;-1.994;2023-12-20T09:20:17;5.20;;;1.47;;
66663;SDS011;59683;51.428;-1.994;2023-12-20T09:22:43;9.43;;;2.60;;
66663;SDS011;59683;51.428;-1.994;2023-12-20T09:25:09;9.00;;;1.43;;
66663;SDS011;59683;51.428;-1.994;2023-12-20T09:27:36;11.20;;;2.03;;
66663;SDS011;59683;51.428;-1.994;2023-12-20T09:30:02;12.80;;;1.40;;
66663;SDS011;59683;51.428;-1.994;2023-12-20T09:32:27;7.23;;;1.43;;
66663;SDS011;59683;51.428;-1.994;2023-12-20T09:34:54;6.07;;;1.07;;
66663;SDS011;59683;51.428;-1.994;2023-12-20T09:37:20;12.33;;;1.47;;
66663;SDS011;59683;51.428;-1.994;2023-12-20T09:39:45;10.07;;;1.10;;
66663;SDS011;59683;51.428;-1.994;2023-12-20T09:42:11;5.47;;;1.13;;
66663;SDS011;59683;51.428;-1.994;2023-12-20T09:44:39;7.03;;;1.43;;
66663;SDS011;59683;51.428;-1.994;2023-12-20T09:47:07;8.17;;;2.10;;
66663;SDS011;59683;51.428;-1.994;2023-12-20T09:49:33;7.47;;;1.37;;
66663;SDS011;59683;51.428;-1.994;2023-12-20T09:52:00;11.13;;;1.70;;
66663;SDS011;59683;51.428;-1.994;2023-12-20T09:54:26;6.77;;;1.13;;
66663;SDS011;59683;51.428;-1.994;2023-12-20T09:56:53;11.40;;;2.07;;
66663;SDS011;59683;51.428;-1.994;2023-12-20T09:59:19;6.83;;;0.90;;
66663;SDS011;59683;51.428;-1.994;2023-12-20T10:01:44;5.43;;;0.97;;
66663;SDS011;59683;51.428;-1.994;2023-12-20T10:04:10;7.77;;;1.57;;
66663;SDS011;59683;51.428;-1.994;2023-12-20T10:06:38;11.07;;;2.27;;
66663;SDS011;59683;51.428;-1.994;2023-12-20T10:09:04;8.23;;;1.37;;
66663;SDS011;59683;51.428;-1.994;2023-12-20T10:11:30;8.93;;;1.50;;
66663;SDS011;59683;51.428;-1.994;2023-12-20T10:13:59;4.83;;;1.20;;
66663;SDS011;59683;51.428;-1.994;2023-12-20T10:16:29;6.27;;;0.97;;
66663;SDS011;59683;51.428;-1.994;2023-12-20T10:18:55;8.53;;;0.97;;
66663;SDS011;59683;51.428;-1.994;2023-12-20T10:21:25;7.80;;;1.57;;
66663;SDS011;59683;51.428;-1.994;2023-12-20T10:23:51;5.03;;;1.02;;
66663;SDS011;59683;51.428;-1.994;2023-12-20T10:26:21;2.80;;;0.70;;
66663;SDS011;59683;51.428;-1.994;2023-12-20T10:28:51;5.68;;;1.65;;
66663;SDS011;59683;51.428;-1.994;2023-12-20T10:33:53;4.50;;;1.00;;
66663;SDS011;59683;51.428;-1.994;2023-12-20T10:36:21;3.83;;;0.87;;
66663;SDS011;59683;51.428;-1.994;2023-12-20T10:38:48;5.93;;;1.10;;
66663;SDS011;59683;51.428;-1.994;2023-12-20T10:41:17;5.73;;;1.23;;
66663;SDS011;59683;51.428;-1.994;2023-12-20T10:43:48;7.90;;;1.47;;
66663;SDS011;59683;51.428;-1.994;2023-12-20T10:46:14;3.70;;;1.20;;
66663;SDS011;59683;51.428;-1.994;2023-12-20T10:48:41;11.47;;;1.93;;
66663;SDS011;59683;51.428;-1.994;2023-12-20T10:51:09;7.77;;;1.83;;
66663;SDS011;59683;51.428;-1.994;2023-12-20T10:53:35;6.83;;;1.10;;
66663;SDS011;59683;51.428;-1.994;2023-12-20T10:56:01;9.03;;;1.50;;
66663;SDS011;59683;51.428;-1.994;2023-12-20T10:58:28;4.77;;;1.40;;
66663;SDS011;59683;51.428;-1.994;2023-12-20T11:00:59;2.83;;;0.90;;
66663;SDS011;59683;51.428;-1.994;2023-12-20T11:03:28;6.90;;;1.50;;
66663;SDS011;59683;51.428;-1.994;2023-12-20T11:06:03;9.87;;;1.70;;
66663;SDS011;59683;51.428;-1.994;2023-12-20T11:08:44;3.73;;;1.23;;
66663;SDS011;59683;51.428;-1.994;2023-12-20T11:11:27;8.47;;;1.80;;
66663;SDS011;59683;51.428;-1.994;2023-12-20T11:14:19;2.80;;;0.98;;
66663;SDS011;59683;51.428;-1.994;2023-12-20T11:16:48;7.00;;;1.10;;
66663;SDS011;59683;51.428;-1.994;2023-12-20T11:19:14;6.47;;;1.03;;
66663;SDS011;59683;51.428;-1.994;2023-12-20T11:21:40;7.30;;;1.17;;
66663;SDS011;59683;51.428;-1.994;2023-12-20T11:24:06;6.50;;;1.97;;
66663;SDS011;59683;51.428;-1.994;2023-12-20T11:26:32;6.37;;;1.73;;
66663;SDS011;59683;51.428;-1.994;2023-12-20T11:31:59;2.47;;;0.77;;
66663;SDS011;59683;51.428;-1.994;2023-12-20T11:34:29;8.57;;;1.60;;
66663;SDS011;59683;51.428;-1.994;2023-12-20T11:36:57;5.77;;;0.70;;
66663;SDS011;59683;51.428;-1.994;2023-12-20T11:39:25;5.40;;;1.10;;
66663;SDS011;59683;51.428;-1.994;2023-12-20T11:41:50;5.73;;;1.07;;
66663;SDS011;59683;51.428;-1.994;2023-12-20T11:44:17;6.77;;;1.33;;
66663;SDS011;59683;51.428;-1.994;2023-12-20T11:46:42;8.50;;;1.30;;
66663;SDS011;59683;51.428;-1.994;2023-12-20T11:49:09;5.67;;;1.50;;
66663;SDS011;59683;51.428;-1.994;2023-12-20T11:51:34;4.87;;;0.90;;
66663;SDS011;59683;51.428;-1.994;2023-12-20T11:54:00;7.33;;;1.30;;
66663;SDS011;59683;51.428;-1.994;2023-12-20T11:56:25;7.67;;;1.10;;
66663;SDS011;59683;51.428;-1.994;2023-12-20T11:58:50;5.43;;;1.43;;
66663;SDS011;59683;51.428;-1.994;2023-12-20T12:01:16;5.67;;;1.27;;
66663;SDS011;59683;51.428;-1.994;2023-12-20T12:03:41;9.43;;;1.57;;
66663;SDS011;59683;51.428;-1.994;2023-12-20T12:06:08;5.17;;;1.60;;
66663;SDS011;59683;51.428;-1.994;2023-12-20T12:08:33;8.97;;;1.67;;
66663;SDS011;59683;51.428;-1.994;2023-12-20T12:11:00;3.67;;;1.10;;
66663;SDS011;59683;51.428;-1.994;2023-12-20T12:13:26;4.77;;;1.27;;
66663;SDS011;59683;51.428;-1.994;2023-12-20T12:15:53;6.90;;;1.03;;
66663;SDS011;59683;51.428;-1.994;2023-12-20T12:18:18;7.60;;;2.50;;
66663;SDS011;59683;51.428;-1.994;2023-12-20T12:20:44;7.27;;;2.03;;
66663;SDS011;59683;51.428;-1.994;2023-12-20T12:23:09;5.50;;;1.00;;
66663;SDS011;59683;51.428;-1.994;2023-12-20T12:25:35;4.30;;;0.90;;
66663;SDS011;59683;51.428;-1.994;2023-12-20T12:28:02;4.63;;;0.90;;
66663;SDS011;59683;51.428;-1.994;2023-12-20T12:30:28;3.70;;;1.30;;
66663;SDS011;59683;51.428;-1.994;2023-12-20T12:32:53;4.53;;;1.00;;
66663;SDS011;59683;51.428;-1.994;2023-12-20T12:35:21;7.40;;;2.23;;
66663;SDS011;59683;51.428;-1.994;2023-12-20T12:37:46;4.13;;;1.10;;
66663;SDS011;59683;51.428;-1.994;2023-12-20T12:40:15;12.77;;;3.00;;
66663;SDS011;59683;51.428;-1.994;2023-12-20T12:42:42;7.78;;;1.75;;
66663;SDS011;59683;51.428;-1.994;2023-12-20T12:45:09;5.17;;;0.90;;
66663;SDS011;59683;51.428;-1.994;2023-12-20T12:47:39;7.90;;;1.10;;
66663;SDS011;59683;51.428;-1.994;2023-12-20T12:50:05;9.93;;;1.00;;
66663;SDS011;59683;51.428;-1.994;2023-12-20T12:52:30;8.47;;;1.00;;
66663;SDS011;59683;51.428;-1.994;2023-12-20T12:54:56;9.40;;;0.90;;
66663;SDS011;59683;51.428;-1.994;2023-12-20T12:57:21;5.83;;;1.20;;
66663;SDS011;59683;51.428;-1.994;2023-12-20T12:59:47;6.20;;;1.00;;
66663;SDS011;59683;51.428;-1.994;2023-12-20T13:02:12;6.13;;;0.90;;
66663;SDS011;59683;51.428;-1.994;2023-12-20T13:04:38;5.07;;;0.90;;
66663;SDS011;59683;51.428;-1.994;2023-12-20T13:07:04;5.47;;;1.07;;
66663;SDS011;59683;51.428;-1.994;2023-12-20T13:09:30;6.83;;;1.20;;
66663;SDS011;59683;51.428;-1.994;2023-12-20T13:11:55;10.20;;;1.53;;
66663;SDS011;59683;51.428;-1.994;2023-12-20T13:14:21;9.57;;;1.37;;
66663;SDS011;59683;51.428;-1.994;2023-12-20T13:16:46;4.67;;;0.97;;
66663;SDS011;59683;51.428;-1.994;2023-12-20T13:19:12;9.43;;;1.17;;
66663;SDS011;59683;51.428;-1.994;2023-12-20T13:21:37;7.03;;;1.20;;
66663;SDS011;59683;51.428;-1.994;2023-12-20T13:24:03;9.13;;;1.67;;
66663;SDS011;59683;51.428;-1.994;2023-12-20T13:26:29;7.80;;;1.40;;
66663;SDS011;59683;51.428;-1.994;2023-12-20T13:28:54;8.93;;;1.80;;
66663;SDS011;59683;51.428;-1.994;2023-12-20T13:31:20;7.07;;;1.10;;
66663;SDS011;59683;51.428;-1.994;2023-12-20T13:33:45;9.57;;;1.03;;
66663;SDS011;59683;51.428;-1.994;2023-12-20T13:36:11;5.27;;;1.70;;
66663;SDS011;59683;51.428;-1.994;2023-12-20T13:38:36;13.10;;;2.10;;
66663;SDS011;59683;51.428;-1.994;2023-12-20T13:41:02;4.17;;;0.80;;
66663;SDS011;59683;51.428;-1.994;2023-12-20T13:43:27;6.17;;;1.10;;
66663;SDS011;59683;51.428;-1.994;2023-12-20T13:45:53;8.10;;;1.70;;
66663;SDS011;59683;51.428;-1.994;2023-12-20T13:48:18;7.47;;;1.10;;
66663;SDS011;59683;51.428;-1.994;2023-12-20T13:50:43;6.60;;;1.40;;
66663;SDS011;59683;51.428;-1.994;2023-12-20T13:53:09;8.10;;;1.17;;
66663;SDS011;59683;51.428;-1.994;2023-12-20T13:55:34;5.70;;;1.13;;
66663;SDS011;59683;51.428;-1.994;2023-12-20T13:57:59;7.93;;;1.53;;
66663;SDS011;59683;51.428;-1.994;2023-12-20T14:00:25;9.67;;;1.40;;
66663;SDS011;59683;51.428;-1.994;2023-12-20T14:02:50;6.43;;;1.13;;
66663;SDS011;59683;51.428;-1.994;2023-12-20T14:05:16;6.47;;;1.20;;
66663;SDS011;59683;51.428;-1.994;2023-12-20T14:07:44;10.37;;;1.80;;
66663;SDS011;59683;51.428;-1.994;2023-12-20T14:10:13;6.70;;;1.07;;
66663;SDS011;59683;51.428;-1.994;2023-12-20T14:12:39;7.40;;;1.60;;
66663;SDS011;59683;51.428;-1.994;2023-12-20T14:15:05;11.30;;;1.87;;
66663;SDS011;59683;51.428;-1.994;2023-12-20T14:17:36;6.27;;;1.03;;
66663;SDS011;59683;51.428;-1.994;2023-12-20T14:20:03;10.37;;;1.20;;
66663;SDS011;59683;51.428;-1.994;2023-12-20T14:22:31;8.23;;;1.27;;
66663;SDS011;59683;51.428;-1.994;2023-12-20T14:24:56;12.83;;;3.07;;